Adair, Illinois
Current Conditions -  °F | °C
As of 10:35 PM on Wednesday 22 Oct 2014 (Local Time) from KMQB Reporting Station
Clear Clear  
Wind Chill: 33°   Ceiling: Unl
Heat Index: 37°   Visibility: 10mi
Dew Point: 35°   Wind: 6mph
Humidity: 93%   Direction: 130°SE
Pressure: 30.25"   Gusts: NA
Location:  40.42°N, 90.5°W
Report Text: KMQB 230335Z AUTO 13005KT 10SM CLR 03/02 A3025 RMK AO2 T00290018
Loading
Personal Weather Stations






























Interactive Weather Map
Tropical Storm Tracking
New forecast layout! Learn more

10-Day Weather Forecast

Advertisements
Track Severe Weather on mobile